createdAt,value
2023-01-17T00:02:13.641Z,100.00
2023-01-17T00:04:40.099Z,100.00
2023-01-17T00:07:06.517Z,100.00
2023-01-17T00:09:32.847Z,100.00
2023-01-17T00:12:00.868Z,100.00
2023-01-17T00:14:27.350Z,100.00
2023-01-17T00:16:54.443Z,100.00
2023-01-17T00:19:20.811Z,100.00
2023-01-17T00:21:47.272Z,100.00
2023-01-17T00:24:13.649Z,100.00
2023-01-17T00:26:39.899Z,100.00
2023-01-17T00:29:06.245Z,100.00
2023-01-17T00:31:32.584Z,100.00
2023-01-17T00:33:59.099Z,100.00
2023-01-17T00:36:25.429Z,100.00
2023-01-17T00:38:51.694Z,100.00
2023-01-17T00:41:18.223Z,100.00
2023-01-17T00:43:44.591Z,100.00
2023-01-17T00:46:10.954Z,100.00
2023-01-17T00:48:38.596Z,100.00
2023-01-17T00:51:05.057Z,100.00
2023-01-17T00:53:31.442Z,100.00
2023-01-17T00:56:00.721Z,100.00
2023-01-17T00:58:27.260Z,100.00
2023-01-17T01:00:54.187Z,100.00
2023-01-17T01:03:20.608Z,100.00
2023-01-17T01:05:47.090Z,100.00
2023-01-17T01:08:25.425Z,100.00
2023-01-17T01:10:51.752Z,100.00
2023-01-17T01:13:18.538Z,100.00
2023-01-17T01:15:44.860Z,100.00
2023-01-17T01:18:12.172Z,100.00
2023-01-17T01:20:38.490Z,100.00
2023-01-17T01:23:05.298Z,100.00
2023-01-17T01:25:31.651Z,100.00
2023-01-17T01:28:11.158Z,100.00
2023-01-17T01:30:37.605Z,100.00
2023-01-17T01:33:07.490Z,100.00
2023-01-17T01:35:33.839Z,100.00
2023-01-17T01:38:01.757Z,100.00
2023-01-17T01:40:28.078Z,100.00
2023-01-17T01:42:56.914Z,100.00
2023-01-17T01:45:30.880Z,100.00
2023-01-17T01:48:00.634Z,100.00
2023-01-17T01:50:29.315Z,100.00
2023-01-17T01:53:00.700Z,100.00
2023-01-17T01:55:32.413Z,100.00
2023-01-17T01:58:04.303Z,100.00
2023-01-17T02:00:35.409Z,100.00
2023-01-17T02:03:06.786Z,100.00
2023-01-17T02:05:35.261Z,100.00
2023-01-17T02:08:04.976Z,100.00
2023-01-17T02:10:33.803Z,100.00
2023-01-17T02:13:01.144Z,100.00
2023-01-17T02:15:40.975Z,100.00
2023-01-17T02:18:47.439Z,100.00
2023-01-17T02:21:22.410Z,100.00
2023-01-17T02:24:26.600Z,100.00
2023-01-17T02:27:01.146Z,100.00
2023-01-17T02:29:56.542Z,100.00
2023-01-17T02:32:36.658Z,100.00
2023-01-17T02:35:34.327Z,100.00
2023-01-17T02:38:30.640Z,100.00
2023-01-17T02:41:04.841Z,100.00
2023-01-17T02:43:32.658Z,100.00
2023-01-17T02:45:59.134Z,100.00
2023-01-17T02:48:30.401Z,100.00
2023-01-17T02:51:30.943Z,100.00
2023-01-17T02:54:22.204Z,100.00
2023-01-17T02:57:30.606Z,100.00
2023-01-17T03:00:08.038Z,100.00
2023-01-17T03:02:46.403Z,100.00
2023-01-17T03:05:27.445Z,100.00
2023-01-17T03:07:54.788Z,100.00
2023-01-17T03:10:22.216Z,100.00
2023-01-17T03:12:48.609Z,100.00
2023-01-17T03:15:16.197Z,100.00
2023-01-17T03:17:48.139Z,100.00
2023-01-17T03:20:14.724Z,100.00
2023-01-17T03:22:41.087Z,100.00
2023-01-17T03:25:07.538Z,100.00
2023-01-17T03:27:33.917Z,100.00
2023-01-17T03:30:00.184Z,100.00
2023-01-17T03:32:26.593Z,100.00
2023-01-17T03:34:52.880Z,100.00
2023-01-17T03:37:19.292Z,100.00
2023-01-17T03:39:45.570Z,100.00
2023-01-17T03:42:11.928Z,100.00
2023-01-17T03:44:38.290Z,100.00
2023-01-17T03:47:04.588Z,100.00
2023-01-17T03:49:30.933Z,100.00
2023-01-17T03:51:57.259Z,100.00
2023-01-17T03:54:23.643Z,100.00
2023-01-17T03:56:49.912Z,100.00
2023-01-17T03:59:16.245Z,100.00
2023-01-17T04:01:42.677Z,100.00
2023-01-17T04:04:09.056Z,100.00
2023-01-17T04:06:35.402Z,100.00
2023-01-17T04:09:01.750Z,100.00
2023-01-17T04:11:28.161Z,100.00
2023-01-17T04:13:54.424Z,100.00
2023-01-17T04:16:25.951Z,100.00
2023-01-17T04:18:52.283Z,100.00
2023-01-17T04:21:18.639Z,100.00
2023-01-17T04:23:44.902Z,100.00
2023-01-17T04:26:12.177Z,100.00
2023-01-17T04:28:38.838Z,100.00
2023-01-17T04:31:06.019Z,100.00
2023-01-17T04:33:32.991Z,100.00
2023-01-17T04:35:59.298Z,100.00
2023-01-17T04:38:25.648Z,100.00
2023-01-17T04:40:52.029Z,100.00
2023-01-17T04:43:18.304Z,100.00
2023-01-17T04:45:44.624Z,100.00
2023-01-17T04:48:10.952Z,100.00
2023-01-17T04:50:37.290Z,100.00
2023-01-17T04:53:03.656Z,100.00
2023-01-17T04:55:30.034Z,100.00
2023-01-17T04:57:56.401Z,100.00
2023-01-17T05:00:24.230Z,100.00
2023-01-17T05:02:50.818Z,100.00
2023-01-17T05:05:17.123Z,100.00
2023-01-17T05:07:43.464Z,100.00
2023-01-17T05:10:10.377Z,100.00
2023-01-17T05:12:36.699Z,100.00
2023-01-17T05:15:03.274Z,100.00
2023-01-17T05:17:29.608Z,100.00
2023-01-17T05:19:55.970Z,100.00
2023-01-17T05:22:22.280Z,100.00
2023-01-17T05:24:48.613Z,100.00
2023-01-17T05:27:15.516Z,100.00
2023-01-17T05:29:41.833Z,100.00
2023-01-17T05:32:08.291Z,100.00
2023-01-17T05:34:34.597Z,100.00
2023-01-17T05:37:00.957Z,100.00
2023-01-17T05:39:27.299Z,100.00
2023-01-17T05:41:53.659Z,100.00
2023-01-17T05:44:19.977Z,100.00
2023-01-17T05:46:46.282Z,100.00
2023-01-17T05:49:12.626Z,100.00
2023-01-17T05:51:38.973Z,100.00
2023-01-17T05:54:05.900Z,100.00
2023-01-17T05:56:32.819Z,100.00
2023-01-17T05:58:59.399Z,100.00
2023-01-17T06:01:25.816Z,100.00
2023-01-17T06:03:52.160Z,100.00
2023-01-17T06:06:18.523Z,100.00
2023-01-17T06:08:44.857Z,100.00
2023-01-17T06:11:11.194Z,100.00
2023-01-17T06:13:37.690Z,100.00
2023-01-17T06:16:04.483Z,100.00
2023-01-17T06:18:31.450Z,100.00
2023-01-17T06:20:57.835Z,100.00
2023-01-17T06:23:24.786Z,100.00
2023-01-17T06:25:51.487Z,100.00
2023-01-17T06:28:20.385Z,100.00
2023-01-17T06:30:47.022Z,100.00
2023-01-17T06:33:13.787Z,100.00
2023-01-17T06:35:40.909Z,100.00
2023-01-17T06:38:07.507Z,100.00
2023-01-17T06:40:33.865Z,100.00
2023-01-17T06:43:01.571Z,100.00
2023-01-17T06:45:28.467Z,100.00
2023-01-17T06:47:54.833Z,100.00
2023-01-17T06:50:21.981Z,100.00
2023-01-17T06:53:00.062Z,100.00
2023-01-17T06:55:27.731Z,100.00
2023-01-17T06:57:55.629Z,100.00
2023-01-17T07:00:22.443Z,100.00
2023-01-17T07:02:50.182Z,100.00
2023-01-17T07:05:16.845Z,100.00
2023-01-17T07:07:44.619Z,100.00
2023-01-17T07:10:12.640Z,100.00
2023-01-17T07:12:39.046Z,100.00
2023-01-17T07:15:05.852Z,100.00
2023-01-17T07:17:33.933Z,100.00
2023-01-17T07:20:00.398Z,100.00
2023-01-17T07:22:26.718Z,100.00
2023-01-17T07:24:53.231Z,100.00
2023-01-17T07:27:19.508Z,100.00
2023-01-17T07:29:45.847Z,100.00
2023-01-17T07:32:12.216Z,100.00
2023-01-17T07:34:38.533Z,100.00
2023-01-17T07:37:04.924Z,100.00
2023-01-17T07:39:31.287Z,100.00
2023-01-17T07:41:57.663Z,100.00
2023-01-17T07:44:24.105Z,100.00
2023-01-17T07:46:50.444Z,100.00
2023-01-17T07:49:16.845Z,100.00
2023-01-17T07:51:43.198Z,100.00
2023-01-17T07:54:11.540Z,100.00
2023-01-17T07:56:38.021Z,100.00
2023-01-17T07:59:04.276Z,100.00
2023-01-17T08:01:30.809Z,100.00
2023-01-17T08:03:57.252Z,100.00
2023-01-17T08:06:26.776Z,100.00
2023-01-17T08:08:53.590Z,100.00
2023-01-17T08:11:19.934Z,100.00
2023-01-17T08:13:46.516Z,100.00
2023-01-17T08:16:13.602Z,100.00
2023-01-17T08:18:40.301Z,100.00
2023-01-17T08:21:14.636Z,100.00
2023-01-17T08:23:41.290Z,100.00
2023-01-17T08:26:07.820Z,100.00
2023-01-17T08:28:34.226Z,100.00
2023-01-17T08:31:09.882Z,100.00
2023-01-17T08:33:36.374Z,100.00
2023-01-17T08:36:02.874Z,100.00
2023-01-17T08:38:29.228Z,100.00
2023-01-17T08:40:55.583Z,100.00
2023-01-17T08:43:21.960Z,100.00
2023-01-17T08:45:49.914Z,100.00
2023-01-17T08:48:16.345Z,100.00
2023-01-17T08:50:42.632Z,100.00
2023-01-17T08:53:09.006Z,100.00
2023-01-17T08:55:35.409Z,100.00
2023-01-17T08:58:01.691Z,100.00
2023-01-17T09:00:28.006Z,100.00
2023-01-17T09:02:54.365Z,100.00
2023-01-17T09:05:20.697Z,100.00
2023-01-17T09:07:47.031Z,100.00
2023-01-17T09:10:13.448Z,100.00
2023-01-17T09:12:39.806Z,100.00
2023-01-17T09:15:06.746Z,100.00
2023-01-17T09:17:33.226Z,100.00
2023-01-17T09:19:59.545Z,100.00
2023-01-17T09:22:26.531Z,100.00
2023-01-17T09:24:52.887Z,100.00
2023-01-17T09:27:19.496Z,100.00
2023-01-17T09:29:45.948Z,100.00
2023-01-17T09:32:12.198Z,100.00
2023-01-17T09:34:38.578Z,100.00
2023-01-17T09:37:04.815Z,100.00
2023-01-17T09:39:31.249Z,100.00
2023-01-17T09:42:03.593Z,100.00
2023-01-17T09:44:40.092Z,100.00
2023-01-17T09:47:45.073Z,100.00
2023-01-17T09:50:33.680Z,100.00
2023-01-17T09:53:15.527Z,100.00
2023-01-17T09:55:44.183Z,100.00
2023-01-17T09:58:17.776Z,100.00
2023-01-17T10:00:44.054Z,100.00
2023-01-17T10:03:31.890Z,100.00
2023-01-17T10:06:16.478Z,100.00
2023-01-17T10:08:58.112Z,100.00
2023-01-17T10:11:43.206Z,100.00
2023-01-17T10:14:28.782Z,100.00
2023-01-17T10:17:03.831Z,100.00
2023-01-17T10:19:54.871Z,100.00
2023-01-17T10:22:43.602Z,100.00
2023-01-17T10:25:39.128Z,100.00
2023-01-17T10:28:14.930Z,100.00
2023-01-17T10:30:54.470Z,100.00
2023-01-17T10:33:51.828Z,100.00
2023-01-17T10:36:31.471Z,100.00
2023-01-17T10:39:01.475Z,100.00
2023-01-17T10:41:34.457Z,100.00
2023-01-17T10:44:12.239Z,100.00
2023-01-17T10:46:42.948Z,99.15
2023-01-17T10:49:28.247Z,98.70
2023-01-17T10:52:06.119Z,98.51
2023-01-17T10:54:57.969Z,95.82
2023-01-17T10:57:27.100Z,98.40
2023-01-17T10:59:58.651Z,93.29
2023-01-17T11:02:30.209Z,92.13
2023-01-17T11:05:01.424Z,93.38
2023-01-17T11:07:29.542Z,91.54
2023-01-17T11:09:59.103Z,91.30
2023-01-17T11:12:31.325Z,92.55
2023-01-17T11:15:17.547Z,92.83
2023-01-17T11:17:49.153Z,92.95
2023-01-17T11:20:30.034Z,92.36
2023-01-17T11:23:14.454Z,92.32
2023-01-17T11:25:48.464Z,89.95
2023-01-17T11:28:29.349Z,89.05
2023-01-17T11:31:23.226Z,88.87
2023-01-17T11:34:04.800Z,90.88
2023-01-17T11:36:31.978Z,88.88
2023-01-17T11:39:29.040Z,88.32
2023-01-17T11:41:55.394Z,90.57
2023-01-17T11:44:21.603Z,90.78
2023-01-17T11:46:48.579Z,90.47
2023-01-17T11:49:30.137Z,88.11
2023-01-17T11:51:57.001Z,87.08
2023-01-17T11:54:31.032Z,87.29
2023-01-17T11:56:59.836Z,87.16
2023-01-17T11:59:37.996Z,86.36
2023-01-17T12:02:32.462Z,86.62
2023-01-17T12:05:23.244Z,84.65
2023-01-17T12:08:20.576Z,85.65
2023-01-17T12:11:05.412Z,87.51
2023-01-17T12:13:50.228Z,86.99
2023-01-17T12:16:54.017Z,85.29
2023-01-17T12:19:55.053Z,86.22
2023-01-17T12:22:56.039Z,86.48
2023-01-17T12:25:22.648Z,86.07
2023-01-17T12:28:25.274Z,84.89
2023-01-17T12:31:12.497Z,85.67
2023-01-17T12:33:50.536Z,84.86
2023-01-17T12:36:38.193Z,84.22
2023-01-17T12:39:07.637Z,84.45
2023-01-17T12:41:45.639Z,85.94
2023-01-17T12:44:15.878Z,86.31
2023-01-17T12:46:59.888Z,87.23
2023-01-17T12:49:46.432Z,86.63
2023-01-17T12:52:21.293Z,86.55
2023-01-17T12:54:52.914Z,85.68
2023-01-17T12:57:26.794Z,85.59
2023-01-17T13:00:13.363Z,87.35
2023-01-17T13:03:07.743Z,87.61
2023-01-17T13:05:40.373Z,88.12
2023-01-17T13:08:35.428Z,87.57
2023-01-17T13:11:18.330Z,87.21
2023-01-17T13:13:44.675Z,87.93
2023-01-17T13:16:12.560Z,86.72
2023-01-17T13:18:48.272Z,86.66
2023-01-17T13:21:32.256Z,87.38
2023-01-17T13:23:58.571Z,86.85
2023-01-17T13:26:56.152Z,85.75
2023-01-17T13:29:53.747Z,84.90
2023-01-17T13:32:41.452Z,84.76
2023-01-17T13:35:19.403Z,84.59
2023-01-17T13:37:51.842Z,85.19
2023-01-17T13:40:21.334Z,85.33
2023-01-17T13:42:59.671Z,84.17
2023-01-17T13:45:31.969Z,85.61
2023-01-17T13:48:13.619Z,85.47
2023-01-17T13:51:02.461Z,86.52
2023-01-17T13:53:36.024Z,86.68
2023-01-17T13:56:22.911Z,86.41
2023-01-17T13:58:49.204Z,85.37
2023-01-17T14:01:24.437Z,85.60
2023-01-17T14:03:50.973Z,84.98
2023-01-17T14:06:29.372Z,83.97
2023-01-17T14:09:03.101Z,85.11
2023-01-17T14:11:33.455Z,85.40
2023-01-17T14:14:34.694Z,83.98
2023-01-17T14:17:16.386Z,83.65
2023-01-17T14:19:48.352Z,83.74
2023-01-17T14:22:20.922Z,84.70
2023-01-17T14:25:09.075Z,85.19
2023-01-17T14:27:47.317Z,85.36
2023-01-17T14:30:16.711Z,85.17
2023-01-17T14:33:02.978Z,84.05
2023-01-17T14:35:33.719Z,83.04
2023-01-17T14:38:00.809Z,83.83
2023-01-17T14:40:28.990Z,84.20
2023-01-17T14:43:10.846Z,84.59
2023-01-17T14:45:38.544Z,83.34
2023-01-17T14:48:07.427Z,84.45
2023-01-17T14:50:37.864Z,84.70
2023-01-17T14:53:10.972Z,84.36
2023-01-17T14:55:39.086Z,84.97
2023-01-17T14:58:05.470Z,85.05
2023-01-17T15:00:31.885Z,84.97
2023-01-17T15:02:58.587Z,84.16
2023-01-17T15:05:27.866Z,84.37
2023-01-17T15:07:56.527Z,84.80
2023-01-17T15:10:29.976Z,83.80
2023-01-17T15:12:58.946Z,85.35
2023-01-17T15:15:30.587Z,85.89
2023-01-17T15:18:26.570Z,85.83
2023-01-17T15:21:02.512Z,86.35
2023-01-17T15:23:33.186Z,86.78
2023-01-17T15:26:01.638Z,86.71
2023-01-17T15:28:29.057Z,86.82
2023-01-17T15:31:09.114Z,87.32
2023-01-17T15:33:42.697Z,87.32
2023-01-17T15:36:29.145Z,88.15
2023-01-17T15:39:17.599Z,88.62
2023-01-17T15:41:44.361Z,89.26
2023-01-17T15:44:23.423Z,89.78
2023-01-17T15:46:50.180Z,90.08
2023-01-17T15:49:23.304Z,90.37
2023-01-17T15:52:03.263Z,90.56
2023-01-17T15:55:00.037Z,89.32
2023-01-17T15:57:35.871Z,88.58
2023-01-17T16:00:14.936Z,88.51
2023-01-17T16:02:46.771Z,88.03
2023-01-17T16:05:22.457Z,88.69
2023-01-17T16:07:54.658Z,89.02
2023-01-17T16:10:29.358Z,89.30
2023-01-17T16:12:55.768Z,89.50
2023-01-17T16:15:22.490Z,91.07
2023-01-17T16:18:11.091Z,91.78
2023-01-17T16:20:42.894Z,92.10
2023-01-17T16:23:10.461Z,91.89
2023-01-17T16:25:36.826Z,92.05
2023-01-17T16:28:03.573Z,90.96
2023-01-17T16:30:30.545Z,90.63
2023-01-17T16:32:57.339Z,90.52
2023-01-17T16:35:25.889Z,91.90
2023-01-17T16:37:54.720Z,91.77
2023-01-17T16:40:23.455Z,92.05
2023-01-17T16:42:50.049Z,91.80
2023-01-17T16:45:17.747Z,91.82
2023-01-17T16:47:47.888Z,93.07
2023-01-17T16:50:18.462Z,93.57
2023-01-17T16:52:44.936Z,93.15
2023-01-17T16:55:12.971Z,93.24
2023-01-17T16:57:39.843Z,93.13
2023-01-17T17:00:07.857Z,93.66
2023-01-17T17:02:34.283Z,92.87
2023-01-17T17:05:00.559Z,92.80
2023-01-17T17:07:26.933Z,92.72
2023-01-17T17:09:53.306Z,92.59
2023-01-17T17:12:19.913Z,92.64
2023-01-17T17:14:46.214Z,92.73
2023-01-17T17:17:12.553Z,92.67
2023-01-17T17:19:38.922Z,92.27
2023-01-17T17:22:05.317Z,92.15
2023-01-17T17:24:32.166Z,92.03
2023-01-17T17:26:58.744Z,92.71
2023-01-17T17:29:25.177Z,93.14
2023-01-17T17:31:51.547Z,93.98
2023-01-17T17:34:17.924Z,94.35
2023-01-17T17:36:44.406Z,94.65
2023-01-17T17:39:12.310Z,94.97
2023-01-17T17:41:42.350Z,95.72
2023-01-17T17:44:09.206Z,94.94
2023-01-17T17:46:35.578Z,94.76
2023-01-17T17:49:02.289Z,94.76
2023-01-17T17:51:33.315Z,94.92
2023-01-17T17:54:03.255Z,95.08
2023-01-17T17:56:31.312Z,95.43
2023-01-17T17:58:59.295Z,95.57
2023-01-17T18:01:26.264Z,95.59
2023-01-17T18:03:56.519Z,95.89
2023-01-17T18:06:23.657Z,96.41
2023-01-17T18:08:50.063Z,96.89
2023-01-17T18:11:19.743Z,97.18
2023-01-17T18:13:48.320Z,97.53
2023-01-17T18:16:17.151Z,97.85
2023-01-17T18:18:46.269Z,97.89
2023-01-17T18:21:19.067Z,98.33
2023-01-17T18:23:45.473Z,98.18
2023-01-17T18:26:25.331Z,98.48
2023-01-17T18:28:53.371Z,98.89
2023-01-17T18:31:21.274Z,99.07
2023-01-17T18:33:47.636Z,98.83
2023-01-17T18:36:14.060Z,98.97
2023-01-17T18:38:43.016Z,99.26
2023-01-17T18:41:17.429Z,99.40
2023-01-17T18:43:43.895Z,99.53
2023-01-17T18:46:11.319Z,99.91
2023-01-17T18:48:38.463Z,99.46
2023-01-17T18:51:11.721Z,99.09
2023-01-17T18:53:39.179Z,99.60
2023-01-17T18:56:11.162Z,99.81
2023-01-17T18:58:42.682Z,99.98
2023-01-17T19:01:28.518Z,100.00
2023-01-17T19:03:57.642Z,99.51
2023-01-17T19:06:27.138Z,99.38
2023-01-17T19:08:53.554Z,99.48
2023-01-17T19:11:21.970Z,99.10
2023-01-17T19:13:48.693Z,99.40
2023-01-17T19:16:20.209Z,99.29
2023-01-17T19:18:47.315Z,98.78
2023-01-17T19:21:18.422Z,99.13
2023-01-17T19:23:44.907Z,98.49
2023-01-17T19:26:12.691Z,98.66
2023-01-17T19:28:41.736Z,98.85
2023-01-17T19:31:16.726Z,98.55
2023-01-17T19:33:45.278Z,98.59
2023-01-17T19:36:18.073Z,98.81
2023-01-17T19:38:58.644Z,98.95
2023-01-17T19:41:29.458Z,98.96
2023-01-17T19:43:57.282Z,98.42
2023-01-17T19:46:24.852Z,98.33
2023-01-17T19:48:51.866Z,98.62
2023-01-17T19:51:18.330Z,99.30
2023-01-17T19:53:44.645Z,99.87
2023-01-17T19:56:13.736Z,99.56
2023-01-17T19:58:41.053Z,99.79
2023-01-17T20:01:22.206Z,99.74
2023-01-17T20:03:50.689Z,99.50
2023-01-17T20:06:23.067Z,99.17
2023-01-17T20:08:49.516Z,99.27
2023-01-17T20:11:18.247Z,99.24
2023-01-17T20:13:50.684Z,99.25
2023-01-17T20:16:17.702Z,99.19
2023-01-17T20:18:44.743Z,99.55
2023-01-17T20:21:15.503Z,99.71
2023-01-17T20:23:43.261Z,100.00
2023-01-17T20:26:12.852Z,100.00
2023-01-17T20:28:41.780Z,100.00
2023-01-17T20:31:16.165Z,100.00
2023-01-17T20:33:44.713Z,100.00
2023-01-17T20:36:15.544Z,100.00
2023-01-17T20:38:42.688Z,100.00
2023-01-17T20:41:17.460Z,100.00
2023-01-17T20:43:45.973Z,100.00
2023-01-17T20:46:13.290Z,100.00
2023-01-17T20:48:44.885Z,100.00
2023-01-17T20:51:11.943Z,100.00
2023-01-17T20:53:39.852Z,100.00
2023-01-17T20:56:06.488Z,100.00
2023-01-17T20:58:32.901Z,100.00
2023-01-17T21:00:59.339Z,100.00
2023-01-17T21:03:26.749Z,100.00
2023-01-17T21:05:59.099Z,100.00
2023-01-17T21:08:25.443Z,100.00
2023-01-17T21:10:51.785Z,100.00
2023-01-17T21:13:18.138Z,100.00
2023-01-17T21:15:45.600Z,100.00
2023-01-17T21:18:12.028Z,100.00
2023-01-17T21:20:38.371Z,100.00
2023-01-17T21:23:04.789Z,100.00
2023-01-17T21:25:31.145Z,100.00
2023-01-17T21:27:57.796Z,100.00
2023-01-17T21:30:24.426Z,100.00
2023-01-17T21:32:50.796Z,100.00
2023-01-17T21:35:17.145Z,100.00
2023-01-17T21:37:43.579Z,100.00
2023-01-17T21:40:11.762Z,100.00
2023-01-17T21:42:40.235Z,100.00
2023-01-17T21:45:07.036Z,100.00
2023-01-17T21:47:33.385Z,100.00
2023-01-17T21:49:59.760Z,100.00
2023-01-17T21:52:26.167Z,100.00
2023-01-17T21:54:52.609Z,100.00
2023-01-17T21:57:20.376Z,100.00
2023-01-17T21:59:46.698Z,100.00
2023-01-17T22:02:13.188Z,100.00
2023-01-17T22:04:39.521Z,100.00
2023-01-17T22:07:05.887Z,100.00
2023-01-17T22:09:32.217Z,100.00
2023-01-17T22:11:58.592Z,100.00
2023-01-17T22:14:24.915Z,100.00
2023-01-17T22:16:52.301Z,100.00
2023-01-17T22:19:18.819Z,100.00
2023-01-17T22:21:45.130Z,100.00
2023-01-17T22:24:11.471Z,100.00
2023-01-17T22:26:38.768Z,100.00
2023-01-17T22:29:06.246Z,100.00
2023-01-17T22:31:33.704Z,100.00
2023-01-17T22:34:02.722Z,100.00
2023-01-17T22:36:32.104Z,100.00
2023-01-17T22:38:58.453Z,100.00
2023-01-17T22:41:29.349Z,100.00
2023-01-17T22:43:58.733Z,100.00
2023-01-17T22:46:30.565Z,100.00
2023-01-17T22:48:57.656Z,100.00
2023-01-17T22:51:26.604Z,100.00
2023-01-17T22:53:55.335Z,100.00
2023-01-17T22:56:24.746Z,100.00
2023-01-17T22:58:51.084Z,100.00
2023-01-17T23:01:23.449Z,100.00
2023-01-17T23:04:12.306Z,100.00
2023-01-17T23:06:40.782Z,100.00
2023-01-17T23:09:13.363Z,100.00
2023-01-17T23:11:41.422Z,100.00
2023-01-17T23:14:13.969Z,100.00
2023-01-17T23:16:41.993Z,100.00
2023-01-17T23:19:08.713Z,100.00
2023-01-17T23:21:35.080Z,100.00
2023-01-17T23:24:02.540Z,100.00
2023-01-17T23:26:28.858Z,100.00
2023-01-17T23:28:55.199Z,100.00
2023-01-17T23:31:21.725Z,100.00
2023-01-17T23:33:49.089Z,100.00
2023-01-17T23:36:15.466Z,100.00
2023-01-17T23:38:41.873Z,100.00
2023-01-17T23:41:08.891Z,100.00
2023-01-17T23:43:36.474Z,100.00
2023-01-17T23:46:04.987Z,100.00
2023-01-17T23:48:31.347Z,100.00
2023-01-17T23:51:00.180Z,100.00
2023-01-17T23:53:27.719Z,100.00
2023-01-17T23:56:03.697Z,100.00
2023-01-17T23:58:30.128Z,100.00
